createdAt,value
2023-01-17T00:00:19.161Z,978.41
2023-01-17T00:01:19.250Z,978.36
2023-01-17T00:02:19.132Z,978.38
2023-01-17T00:03:19.094Z,978.39
2023-01-17T00:04:19.128Z,978.38
2023-01-17T00:05:19.090Z,978.42
2023-01-17T00:06:19.045Z,978.41
2023-01-17T00:07:19.097Z,978.45
2023-01-17T00:08:19.046Z,978.36
2023-01-17T00:09:19.013Z,978.41
2023-01-17T00:10:19.009Z,978.44
2023-01-17T00:11:18.999Z,978.37
2023-01-17T00:12:18.972Z,978.40
2023-01-17T00:13:18.974Z,978.34
2023-01-17T00:14:18.964Z,978.45
2023-01-17T00:15:18.947Z,978.41
2023-01-17T00:16:19.001Z,978.40
2023-01-17T00:17:18.925Z,978.46
2023-01-17T00:18:18.935Z,978.45
2023-01-17T00:19:18.946Z,978.41
2023-01-17T00:20:20.249Z,978.41
2023-01-17T00:21:18.879Z,978.44
2023-01-17T00:22:18.885Z,978.43
2023-01-17T00:23:18.875Z,978.49
2023-01-17T00:24:18.869Z,978.47
2023-01-17T00:25:18.969Z,978.59
2023-01-17T00:26:18.858Z,978.54
2023-01-17T00:27:18.814Z,978.61
2023-01-17T00:28:18.845Z,978.65
2023-01-17T00:29:18.799Z,978.67
2023-01-17T00:30:18.787Z,978.68
2023-01-17T00:31:18.884Z,978.65
2023-01-17T00:32:18.771Z,978.66
2023-01-17T00:33:18.768Z,978.71
2023-01-17T00:34:18.748Z,978.71
2023-01-17T00:35:18.726Z,978.81
2023-01-17T00:36:18.718Z,978.74
2023-01-17T00:37:18.712Z,978.78
2023-01-17T00:38:18.719Z,978.86
2023-01-17T00:39:18.678Z,978.80
2023-01-17T00:40:18.677Z,978.84
2023-01-17T00:41:18.662Z,978.90
2023-01-17T00:42:18.656Z,978.91
2023-01-17T00:43:18.661Z,978.81
2023-01-17T00:44:18.639Z,978.92
2023-01-17T00:45:18.622Z,978.90
2023-01-17T00:46:18.635Z,978.95
2023-01-17T00:47:18.597Z,978.89
2023-01-17T00:48:18.612Z,978.96
2023-01-17T00:49:18.585Z,978.95
2023-01-17T00:50:18.571Z,978.95
2023-01-17T00:51:18.605Z,978.97
2023-01-17T00:52:18.550Z,979.02
2023-01-17T00:53:18.549Z,979.05
2023-01-17T00:54:19.126Z,979.07
2023-01-17T00:55:18.516Z,979.12
2023-01-17T00:56:18.529Z,979.16
2023-01-17T00:57:18.500Z,979.18
2023-01-17T00:58:18.499Z,979.12
2023-01-17T00:59:18.489Z,979.18
2023-01-17T01:00:18.471Z,979.18
2023-01-17T01:01:18.552Z,979.21
2023-01-17T01:02:18.504Z,979.22
2023-01-17T01:03:18.444Z,979.21
2023-01-17T01:04:18.428Z,979.31
2023-01-17T01:05:18.398Z,979.27
2023-01-17T01:06:18.415Z,979.36
2023-01-17T01:07:18.379Z,979.37
2023-01-17T01:08:18.387Z,979.35
2023-01-17T01:09:18.378Z,979.41
2023-01-17T01:10:18.359Z,979.37
2023-01-17T01:11:18.339Z,979.42
2023-01-17T01:12:18.327Z,979.47
2023-01-17T01:13:18.309Z,979.46
2023-01-17T01:14:18.346Z,979.46
2023-01-17T01:15:18.300Z,979.46
2023-01-17T01:16:18.313Z,979.49
2023-01-17T01:17:18.281Z,979.47
2023-01-17T01:18:18.269Z,979.48
2023-01-17T01:19:18.274Z,979.48
2023-01-17T01:20:18.250Z,979.59
2023-01-17T01:21:18.230Z,979.46
2023-01-17T01:22:18.220Z,979.54
2023-01-17T01:23:18.210Z,979.57
2023-01-17T01:24:18.221Z,979.54
2023-01-17T01:25:18.191Z,979.56
2023-01-17T01:26:18.180Z,979.51
2023-01-17T01:27:18.178Z,979.53
2023-01-17T01:28:18.164Z,979.63
2023-01-17T01:29:18.153Z,979.63
2023-01-17T01:30:18.142Z,979.61
2023-01-17T01:31:18.192Z,979.63
2023-01-17T01:32:18.110Z,979.59
2023-01-17T01:33:18.101Z,979.73
2023-01-17T01:34:18.114Z,979.77
2023-01-17T01:35:18.087Z,979.70
2023-01-17T01:36:18.065Z,979.75
2023-01-17T01:37:18.060Z,979.77
2023-01-17T01:38:18.054Z,979.75
2023-01-17T01:39:19.143Z,979.71
2023-01-17T01:40:18.025Z,979.80
2023-01-17T01:41:18.019Z,979.76
2023-01-17T01:42:18.002Z,979.90
2023-01-17T01:43:18.002Z,979.86
2023-01-17T01:44:18.001Z,979.97
2023-01-17T01:45:17.969Z,979.99
2023-01-17T01:46:17.952Z,979.98
2023-01-17T01:47:17.954Z,979.97
2023-01-17T01:48:18.026Z,979.98
2023-01-17T01:49:17.968Z,980.05
2023-01-17T01:50:17.921Z,980.04
2023-01-17T01:51:17.901Z,980.13
2023-01-17T01:52:17.884Z,980.12
2023-01-17T01:53:17.890Z,980.10
2023-01-17T01:54:17.872Z,980.12
2023-01-17T01:55:17.862Z,980.15
2023-01-17T01:56:17.853Z,980.19
2023-01-17T01:57:17.832Z,980.22
2023-01-17T01:58:17.841Z,980.26
2023-01-17T01:59:17.835Z,980.22
2023-01-17T02:00:17.802Z,980.28
2023-01-17T02:01:17.921Z,980.25
2023-01-17T02:02:17.782Z,980.32
2023-01-17T02:03:17.775Z,980.30
2023-01-17T02:04:17.815Z,980.33
2023-01-17T02:05:17.766Z,980.32
2023-01-17T02:06:17.753Z,980.28
2023-01-17T02:07:17.734Z,980.33
2023-01-17T02:08:17.731Z,980.34
2023-01-17T02:09:17.712Z,980.34
2023-01-17T02:10:17.702Z,980.42
2023-01-17T02:11:17.684Z,980.40
2023-01-17T02:12:17.673Z,980.45
2023-01-17T02:13:17.664Z,980.42
2023-01-17T02:14:17.665Z,980.49
2023-01-17T02:15:17.642Z,980.50
2023-01-17T02:16:17.639Z,980.46
2023-01-17T02:17:17.656Z,980.51
2023-01-17T02:18:17.614Z,980.52
2023-01-17T02:19:17.655Z,980.52
2023-01-17T02:20:38.600Z,980.47
2023-01-17T02:21:17.584Z,980.57
2023-01-17T02:22:17.565Z,980.63
2023-01-17T02:23:17.577Z,980.55
2023-01-17T02:24:17.553Z,980.54
2023-01-17T02:25:17.537Z,980.59
2023-01-17T02:26:17.544Z,980.58
2023-01-17T02:27:17.531Z,980.62
2023-01-17T02:28:17.504Z,980.67
2023-01-17T02:29:17.519Z,980.67
2023-01-17T02:30:17.485Z,980.67
2023-01-17T02:31:17.526Z,980.67
2023-01-17T02:32:17.465Z,980.66
2023-01-17T02:33:17.447Z,980.66
2023-01-17T02:34:17.448Z,980.62
2023-01-17T02:35:17.435Z,980.62
2023-01-17T02:36:17.417Z,980.64
2023-01-17T02:37:17.401Z,980.64
2023-01-17T02:38:17.425Z,980.56
2023-01-17T02:39:17.392Z,980.62
2023-01-17T02:40:17.391Z,980.64
2023-01-17T02:41:17.361Z,980.63
2023-01-17T02:42:17.350Z,980.68
2023-01-17T02:43:17.339Z,980.72
2023-01-17T02:44:17.496Z,980.77
2023-01-17T02:45:17.318Z,980.78
2023-01-17T02:46:17.304Z,980.75
2023-01-17T02:47:17.288Z,980.85
2023-01-17T02:48:17.279Z,980.91
2023-01-17T02:49:17.289Z,980.92
2023-01-17T02:50:17.274Z,980.99
2023-01-17T02:51:17.238Z,980.95
2023-01-17T02:52:17.251Z,980.98
2023-01-17T02:53:17.225Z,980.98
2023-01-17T02:54:17.235Z,980.98
2023-01-17T02:55:17.205Z,980.97
2023-01-17T02:56:17.198Z,980.96
2023-01-17T02:57:17.217Z,981.00
2023-01-17T02:58:17.177Z,980.98
2023-01-17T02:59:17.180Z,981.03
2023-01-17T03:00:17.154Z,981.04
2023-01-17T03:01:17.181Z,981.01
2023-01-17T03:02:17.251Z,981.08
2023-01-17T03:03:17.107Z,981.03
2023-01-17T03:04:17.123Z,981.03
2023-01-17T03:05:18.524Z,981.02
2023-01-17T03:06:17.078Z,981.02
2023-01-17T03:07:17.069Z,981.05
2023-01-17T03:08:17.058Z,981.00
2023-01-17T03:09:17.064Z,981.01
2023-01-17T03:10:17.043Z,981.03
2023-01-17T03:11:17.017Z,981.04
2023-01-17T03:12:17.017Z,981.05
2023-01-17T03:13:17.012Z,981.05
2023-01-17T03:14:17.037Z,981.08
2023-01-17T03:15:16.986Z,981.10
2023-01-17T03:16:17.008Z,981.13
2023-01-17T03:17:16.957Z,981.11
2023-01-17T03:18:16.954Z,981.09
2023-01-17T03:19:16.958Z,981.11
2023-01-17T03:20:16.941Z,981.12
2023-01-17T03:21:16.910Z,981.15
2023-01-17T03:22:16.908Z,981.12
2023-01-17T03:23:16.889Z,981.12
2023-01-17T03:24:16.900Z,981.14
2023-01-17T03:25:16.891Z,981.17
2023-01-17T03:26:16.869Z,981.20
2023-01-17T03:27:16.850Z,981.22
2023-01-17T03:28:16.852Z,981.22
2023-01-17T03:29:16.828Z,981.22
2023-01-17T03:30:16.828Z,981.24
2023-01-17T03:31:16.910Z,981.26
2023-01-17T03:32:16.799Z,981.26
2023-01-17T03:33:16.780Z,981.29
2023-01-17T03:34:16.797Z,981.33
2023-01-17T03:35:16.772Z,981.32
2023-01-17T03:36:16.768Z,981.35
2023-01-17T03:37:16.756Z,981.36
2023-01-17T03:38:16.738Z,981.41
2023-01-17T03:39:16.720Z,981.38
2023-01-17T03:40:16.739Z,981.44
2023-01-17T03:41:16.700Z,981.44
2023-01-17T03:42:16.762Z,981.43
2023-01-17T03:43:16.711Z,981.50
2023-01-17T03:44:16.689Z,981.48
2023-01-17T03:45:16.670Z,981.52
2023-01-17T03:46:16.650Z,981.55
2023-01-17T03:47:16.642Z,981.53
2023-01-17T03:48:16.631Z,981.49
2023-01-17T03:49:16.671Z,981.53
2023-01-17T03:50:16.637Z,981.51
2023-01-17T03:51:16.582Z,981.53
2023-01-17T03:52:16.580Z,981.55
2023-01-17T03:53:16.572Z,981.54
2023-01-17T03:54:16.550Z,981.58
2023-01-17T03:55:16.552Z,981.53
2023-01-17T03:56:16.541Z,981.54
2023-01-17T03:57:16.511Z,981.54
2023-01-17T03:58:16.533Z,981.50
2023-01-17T03:59:16.501Z,981.57
2023-01-17T04:00:16.510Z,981.52
2023-01-17T04:01:16.565Z,981.59
2023-01-17T04:02:16.483Z,981.57
2023-01-17T04:03:16.459Z,981.57
2023-01-17T04:04:16.484Z,981.58
2023-01-17T04:05:16.451Z,981.62
2023-01-17T04:06:16.422Z,981.59
2023-01-17T04:07:16.411Z,981.63
2023-01-17T04:08:16.407Z,981.64
2023-01-17T04:09:16.404Z,981.65
2023-01-17T04:10:16.392Z,981.63
2023-01-17T04:11:16.371Z,981.67
2023-01-17T04:12:16.398Z,981.66
2023-01-17T04:13:16.343Z,981.69
2023-01-17T04:14:16.333Z,981.66
2023-01-17T04:15:16.347Z,981.65
2023-01-17T04:16:16.348Z,981.66
2023-01-17T04:17:16.309Z,981.67
2023-01-17T04:18:16.293Z,981.66
2023-01-17T04:19:16.282Z,981.65
2023-01-17T04:20:16.298Z,981.62
2023-01-17T04:21:16.252Z,981.60
2023-01-17T04:22:16.325Z,981.60
2023-01-17T04:23:16.240Z,981.59
2023-01-17T04:24:17.878Z,981.55
2023-01-17T04:25:16.233Z,981.54
2023-01-17T04:26:16.262Z,981.50
2023-01-17T04:27:16.196Z,981.47
2023-01-17T04:28:16.222Z,981.50
2023-01-17T04:29:16.167Z,981.51
2023-01-17T04:30:16.193Z,981.53
2023-01-17T04:31:16.258Z,981.51
2023-01-17T04:32:16.212Z,981.56
2023-01-17T04:33:16.122Z,981.52
2023-01-17T04:34:16.213Z,981.50
2023-01-17T04:35:16.124Z,981.49
2023-01-17T04:36:16.093Z,981.47
2023-01-17T04:37:16.083Z,981.48
2023-01-17T04:38:16.064Z,981.47
2023-01-17T04:39:16.072Z,981.48
2023-01-17T04:40:16.065Z,981.48
2023-01-17T04:41:16.045Z,981.55
2023-01-17T04:42:16.024Z,981.51
2023-01-17T04:43:16.045Z,981.57
2023-01-17T04:44:16.016Z,981.56
2023-01-17T04:45:16.004Z,981.52
2023-01-17T04:46:16.047Z,981.50
2023-01-17T04:47:15.976Z,981.51
2023-01-17T04:48:15.967Z,981.51
2023-01-17T04:49:15.955Z,981.56
2023-01-17T04:50:15.955Z,981.57
2023-01-17T04:51:15.946Z,981.59
2023-01-17T04:52:15.915Z,981.64
2023-01-17T04:53:15.919Z,981.66
2023-01-17T04:54:15.898Z,981.68
2023-01-17T04:55:15.903Z,981.65
2023-01-17T04:56:16.008Z,981.71
2023-01-17T04:57:15.866Z,981.65
2023-01-17T04:58:15.858Z,981.67
2023-01-17T04:59:15.863Z,981.70
2023-01-17T05:00:15.848Z,981.68
2023-01-17T05:01:15.934Z,981.70
2023-01-17T05:02:15.806Z,981.69
2023-01-17T05:03:15.794Z,981.70
2023-01-17T05:04:15.815Z,981.73
2023-01-17T05:05:15.798Z,981.71
2023-01-17T05:06:15.767Z,981.71
2023-01-17T05:07:15.768Z,981.77
2023-01-17T05:08:15.843Z,981.77
2023-01-17T05:09:15.737Z,981.78
2023-01-17T05:10:15.755Z,981.78
2023-01-17T05:11:15.715Z,981.75
2023-01-17T05:12:15.698Z,981.76
2023-01-17T05:13:15.702Z,981.76
2023-01-17T05:14:15.699Z,981.75
2023-01-17T05:15:15.685Z,981.72
2023-01-17T05:16:15.655Z,981.73
2023-01-17T05:17:15.646Z,981.73
2023-01-17T05:18:15.643Z,981.72
2023-01-17T05:19:15.640Z,981.76
2023-01-17T05:20:15.619Z,981.72
2023-01-17T05:21:15.612Z,981.76
2023-01-17T05:22:15.606Z,981.74
2023-01-17T05:23:15.596Z,981.71
2023-01-17T05:24:15.575Z,981.68
2023-01-17T05:25:15.575Z,981.75
2023-01-17T05:26:15.552Z,981.73
2023-01-17T05:27:15.540Z,981.75
2023-01-17T05:28:15.526Z,981.74
2023-01-17T05:29:15.516Z,981.78
2023-01-17T05:30:15.649Z,981.78
2023-01-17T05:31:15.547Z,981.79
2023-01-17T05:32:15.510Z,981.76
2023-01-17T05:33:15.476Z,981.75
2023-01-17T05:34:15.490Z,981.75
2023-01-17T05:35:15.479Z,981.77
2023-01-17T05:36:15.437Z,981.73
2023-01-17T05:37:15.437Z,981.78
2023-01-17T05:38:15.431Z,981.75
2023-01-17T05:39:15.414Z,981.76
2023-01-17T05:40:15.408Z,981.77
2023-01-17T05:41:15.438Z,981.76
2023-01-17T05:42:15.402Z,981.84
2023-01-17T05:43:15.377Z,981.83
2023-01-17T05:44:15.378Z,981.85
2023-01-17T05:45:15.357Z,981.80
2023-01-17T05:46:15.381Z,981.86
2023-01-17T05:47:15.325Z,981.85
2023-01-17T05:48:15.316Z,981.82
2023-01-17T05:49:15.324Z,981.77
2023-01-17T05:50:15.400Z,981.77
2023-01-17T05:51:15.291Z,981.79
2023-01-17T05:52:15.308Z,981.81
2023-01-17T05:53:15.265Z,981.80
2023-01-17T05:54:15.271Z,981.83
2023-01-17T05:55:15.266Z,981.83
2023-01-17T05:56:15.256Z,981.82
2023-01-17T05:57:15.220Z,981.84
2023-01-17T05:58:15.293Z,981.89
2023-01-17T05:59:17.257Z,981.87
2023-01-17T06:00:15.205Z,981.87
2023-01-17T06:01:15.252Z,981.90
2023-01-17T06:02:15.190Z,981.93
2023-01-17T06:03:15.157Z,981.91
2023-01-17T06:04:15.204Z,981.94
2023-01-17T06:05:15.148Z,981.96
2023-01-17T06:06:15.138Z,981.96
2023-01-17T06:07:15.119Z,981.96
2023-01-17T06:08:15.112Z,981.95
2023-01-17T06:09:15.089Z,981.99
2023-01-17T06:10:15.097Z,981.98
2023-01-17T06:11:15.081Z,982.04
2023-01-17T06:12:15.072Z,982.01
2023-01-17T06:13:15.447Z,982.04
2023-01-17T06:14:15.067Z,982.06
2023-01-17T06:15:15.038Z,982.07
2023-01-17T06:16:15.116Z,982.08
2023-01-17T06:17:15.008Z,982.08
2023-01-17T06:18:15.010Z,982.07
2023-01-17T06:19:14.990Z,982.10
2023-01-17T06:20:14.988Z,982.09
2023-01-17T06:21:14.975Z,982.05
2023-01-17T06:22:14.988Z,982.05
2023-01-17T06:23:14.967Z,982.04
2023-01-17T06:24:14.935Z,982.05
2023-01-17T06:25:14.943Z,982.09
2023-01-17T06:26:14.908Z,982.11
2023-01-17T06:27:14.899Z,982.09
2023-01-17T06:28:14.900Z,982.06
2023-01-17T06:29:14.912Z,982.12
2023-01-17T06:30:14.915Z,982.11
2023-01-17T06:31:14.904Z,982.14
2023-01-17T06:32:14.916Z,982.16
2023-01-17T06:33:14.860Z,982.17
2023-01-17T06:34:14.831Z,982.17
2023-01-17T06:35:14.837Z,982.22
2023-01-17T06:36:14.809Z,982.11
2023-01-17T06:37:14.801Z,982.16
2023-01-17T06:38:14.781Z,982.15
2023-01-17T06:39:15.192Z,982.14
2023-01-17T06:40:14.773Z,982.15
2023-01-17T06:41:14.798Z,982.14
2023-01-17T06:42:14.766Z,982.16
2023-01-17T06:43:14.732Z,982.19
2023-01-17T06:44:14.720Z,982.18
2023-01-17T06:45:14.948Z,982.18
2023-01-17T06:46:14.805Z,982.19
2023-01-17T06:47:14.704Z,982.18
2023-01-17T06:48:14.691Z,982.20
2023-01-17T06:49:14.669Z,982.19
2023-01-17T06:50:14.679Z,982.22
2023-01-17T06:51:14.645Z,982.17
2023-01-17T06:52:14.665Z,982.20
2023-01-17T06:53:14.641Z,982.16
2023-01-17T06:54:14.663Z,982.16
2023-01-17T06:55:14.649Z,982.17
2023-01-17T06:56:14.913Z,982.17
2023-01-17T06:57:14.593Z,982.17
2023-01-17T06:58:14.651Z,982.21
2023-01-17T06:59:14.603Z,982.21
2023-01-17T07:00:14.657Z,982.23
2023-01-17T07:01:14.684Z,982.25
2023-01-17T07:02:14.550Z,982.25
2023-01-17T07:03:14.510Z,982.23
2023-01-17T07:04:14.510Z,982.25
2023-01-17T07:05:14.550Z,982.28
2023-01-17T07:06:14.541Z,982.22
2023-01-17T07:07:14.490Z,982.33
2023-01-17T07:08:14.498Z,982.30
2023-01-17T07:09:14.449Z,982.33
2023-01-17T07:10:14.451Z,982.35
2023-01-17T07:11:14.867Z,982.36
2023-01-17T07:12:14.455Z,982.32
2023-01-17T07:13:14.531Z,982.34
2023-01-17T07:14:14.515Z,982.35
2023-01-17T07:15:14.392Z,982.38
2023-01-17T07:16:14.435Z,982.32
2023-01-17T07:17:14.361Z,982.33
2023-01-17T07:18:14.351Z,982.32
2023-01-17T07:19:14.351Z,982.33
2023-01-17T07:20:14.350Z,982.34
2023-01-17T07:21:14.349Z,982.36
2023-01-17T07:22:14.349Z,982.35
2023-01-17T07:23:14.314Z,982.34
2023-01-17T07:24:14.314Z,982.30
2023-01-17T07:25:14.350Z,982.28
2023-01-17T07:26:14.291Z,982.27
2023-01-17T07:27:14.254Z,982.29
2023-01-17T07:28:14.255Z,982.29
2023-01-17T07:29:14.240Z,982.23
2023-01-17T07:30:14.560Z,982.26
2023-01-17T07:31:14.224Z,982.24
2023-01-17T07:32:14.242Z,982.28
2023-01-17T07:33:14.220Z,982.24
2023-01-17T07:34:14.188Z,982.24
2023-01-17T07:35:14.242Z,982.24
2023-01-17T07:36:14.215Z,982.25
2023-01-17T07:37:15.331Z,982.22
2023-01-17T07:38:14.142Z,982.21
2023-01-17T07:39:14.131Z,982.22
2023-01-17T07:40:14.146Z,982.23
2023-01-17T07:41:14.158Z,982.24
2023-01-17T07:42:14.099Z,982.21
2023-01-17T07:43:14.201Z,982.20
2023-01-17T07:44:14.110Z,982.22
2023-01-17T07:45:14.093Z,982.22
2023-01-17T07:46:14.074Z,982.23
2023-01-17T07:47:14.042Z,982.24
2023-01-17T07:48:14.088Z,982.24
2023-01-17T07:49:14.064Z,982.24
2023-01-17T07:50:14.039Z,982.30
2023-01-17T07:51:14.018Z,982.23
2023-01-17T07:52:14.052Z,982.30
2023-01-17T07:53:13.985Z,982.30
2023-01-17T07:54:13.964Z,982.28
2023-01-17T07:55:13.978Z,982.31
2023-01-17T07:56:13.942Z,982.27
2023-01-17T07:57:13.954Z,982.35
2023-01-17T07:58:13.964Z,982.32
2023-01-17T07:59:13.915Z,982.30
2023-01-17T08:00:14.092Z,982.33
2023-01-17T08:01:14.039Z,982.32
2023-01-17T08:02:13.953Z,982.29
2023-01-17T08:03:13.871Z,982.29
2023-01-17T08:04:13.884Z,982.29
2023-01-17T08:05:13.870Z,982.24
2023-01-17T08:06:13.855Z,982.24
2023-01-17T08:07:13.843Z,982.23
2023-01-17T08:08:13.825Z,982.23
2023-01-17T08:09:13.812Z,982.22
2023-01-17T08:10:13.821Z,982.17
2023-01-17T08:11:13.807Z,982.19
2023-01-17T08:12:13.813Z,982.14
2023-01-17T08:13:13.841Z,982.16
2023-01-17T08:14:13.754Z,982.17
2023-01-17T08:15:13.753Z,982.18
2023-01-17T08:16:13.734Z,982.16
2023-01-17T08:17:13.753Z,982.15
2023-01-17T08:18:13.707Z,982.14
2023-01-17T08:19:13.716Z,982.16
2023-01-17T08:20:13.816Z,982.19
2023-01-17T08:21:13.688Z,982.15
2023-01-17T08:22:13.723Z,982.20
2023-01-17T08:23:13.666Z,982.21
2023-01-17T08:24:13.735Z,982.17
2023-01-17T08:25:13.658Z,982.20
2023-01-17T08:26:13.625Z,982.20
2023-01-17T08:27:13.614Z,982.18
2023-01-17T08:28:13.613Z,982.16
2023-01-17T08:29:13.663Z,982.12
2023-01-17T08:30:13.715Z,982.10
2023-01-17T08:31:13.680Z,982.12
2023-01-17T08:32:13.609Z,982.11
2023-01-17T08:33:13.596Z,982.12
2023-01-17T08:34:13.606Z,982.17
2023-01-17T08:35:13.603Z,982.15
2023-01-17T08:36:13.525Z,982.16
2023-01-17T08:37:13.514Z,982.16
2023-01-17T08:38:13.574Z,982.21
2023-01-17T08:39:13.498Z,982.18
2023-01-17T08:40:13.499Z,982.19
2023-01-17T08:41:13.474Z,982.24
2023-01-17T08:42:13.490Z,982.25
2023-01-17T08:43:13.453Z,982.26
2023-01-17T08:44:13.536Z,982.29
2023-01-17T08:45:13.473Z,982.31
2023-01-17T08:46:13.450Z,982.31
2023-01-17T08:47:13.404Z,982.33
2023-01-17T08:48:13.427Z,982.36
2023-01-17T08:49:13.401Z,982.38
2023-01-17T08:50:13.379Z,982.34
2023-01-17T08:51:13.374Z,982.37
2023-01-17T08:52:13.346Z,982.35
2023-01-17T08:53:13.336Z,982.38
2023-01-17T08:54:13.365Z,982.37
2023-01-17T08:55:13.336Z,982.41
2023-01-17T08:56:13.315Z,982.33
2023-01-17T08:57:13.296Z,982.35
2023-01-17T08:58:13.318Z,982.35
2023-01-17T08:59:13.275Z,982.40
2023-01-17T09:00:13.263Z,982.38
2023-01-17T09:01:13.332Z,982.44
2023-01-17T09:02:13.256Z,982.46
2023-01-17T09:03:13.364Z,982.46
2023-01-17T09:04:13.313Z,982.47
2023-01-17T09:05:13.236Z,982.45
2023-01-17T09:06:13.202Z,982.45
2023-01-17T09:07:13.186Z,982.46
2023-01-17T09:08:13.168Z,982.42
2023-01-17T09:09:13.168Z,982.44
2023-01-17T09:10:13.166Z,982.38
2023-01-17T09:11:13.145Z,982.41
2023-01-17T09:12:13.216Z,982.37
2023-01-17T09:13:13.127Z,982.38
2023-01-17T09:14:13.144Z,982.40
2023-01-17T09:15:13.105Z,982.35
2023-01-17T09:16:13.200Z,982.36
2023-01-17T09:17:14.556Z,982.35
2023-01-17T09:18:13.088Z,982.32
2023-01-17T09:19:13.073Z,982.33
2023-01-17T09:20:13.239Z,982.35
2023-01-17T09:21:13.056Z,982.38
2023-01-17T09:22:13.091Z,982.41
2023-01-17T09:23:13.208Z,982.38
2023-01-17T09:24:13.053Z,982.40
2023-01-17T09:25:13.011Z,982.40
2023-01-17T09:26:12.981Z,982.40
2023-01-17T09:27:12.978Z,982.37
2023-01-17T09:28:13.030Z,982.33
2023-01-17T09:29:12.948Z,982.32
2023-01-17T09:30:12.938Z,982.23
2023-01-17T09:31:12.932Z,982.31
2023-01-17T09:32:13.015Z,982.29
2023-01-17T09:33:12.911Z,982.26
2023-01-17T09:34:12.939Z,982.26
2023-01-17T09:35:12.897Z,982.29
2023-01-17T09:36:12.899Z,982.30
2023-01-17T09:37:12.865Z,982.33
2023-01-17T09:38:12.839Z,982.35
2023-01-17T09:39:12.850Z,982.39
2023-01-17T09:40:12.860Z,982.38
2023-01-17T09:41:12.874Z,982.37
2023-01-17T09:42:12.836Z,982.43
2023-01-17T09:43:12.851Z,982.42
2023-01-17T09:44:12.790Z,982.44
2023-01-17T09:45:12.801Z,982.46
2023-01-17T09:46:12.831Z,982.42
2023-01-17T09:47:12.793Z,982.45
2023-01-17T09:48:12.769Z,982.47
2023-01-17T09:49:12.732Z,982.52
2023-01-17T09:50:12.731Z,982.52
2023-01-17T09:51:12.703Z,982.55
2023-01-17T09:52:12.751Z,982.48
2023-01-17T09:53:12.747Z,982.52
2023-01-17T09:54:12.668Z,982.51
2023-01-17T09:55:12.673Z,982.51
2023-01-17T09:56:12.661Z,982.50
2023-01-17T09:57:12.642Z,982.48
2023-01-17T09:58:12.637Z,982.49
2023-01-17T09:59:14.255Z,982.47
2023-01-17T10:00:12.621Z,982.47
2023-01-17T10:01:12.734Z,982.50
2023-01-17T10:02:12.794Z,982.48
2023-01-17T10:03:12.682Z,982.48
2023-01-17T10:04:12.667Z,982.47
2023-01-17T10:05:12.622Z,982.49
2023-01-17T10:06:12.535Z,982.47
2023-01-17T10:07:12.532Z,982.48
2023-01-17T10:08:12.520Z,982.50
2023-01-17T10:09:12.514Z,982.47
2023-01-17T10:10:12.515Z,982.46
2023-01-17T10:11:12.495Z,982.47
2023-01-17T10:12:12.633Z,982.48
2023-01-17T10:13:12.479Z,982.53
2023-01-17T10:14:12.500Z,982.54
2023-01-17T10:15:12.469Z,982.49
2023-01-17T10:16:12.612Z,982.42
2023-01-17T10:17:12.448Z,982.43
2023-01-17T10:18:21.745Z,982.36
2023-01-17T10:19:13.398Z,982.37
2023-01-17T10:20:12.423Z,982.39
2023-01-17T10:21:12.419Z,982.37
2023-01-17T10:22:12.410Z,982.33
2023-01-17T10:23:12.410Z,982.40
2023-01-17T10:24:12.367Z,982.37
2023-01-17T10:25:12.343Z,982.37
2023-01-17T10:26:12.372Z,982.37
2023-01-17T10:27:12.335Z,982.34
2023-01-17T10:28:12.327Z,982.33
2023-01-17T10:29:12.288Z,982.34
2023-01-17T10:30:12.420Z,982.30
2023-01-17T10:31:12.304Z,982.22
2023-01-17T10:32:12.376Z,982.21
2023-01-17T10:33:12.248Z,982.20
2023-01-17T10:34:12.248Z,982.24
2023-01-17T10:35:14.203Z,982.17
2023-01-17T10:36:12.226Z,982.23
2023-01-17T10:37:12.212Z,982.18
2023-01-17T10:38:12.199Z,982.15
2023-01-17T10:39:12.175Z,982.12
2023-01-17T10:40:12.250Z,982.17
2023-01-17T10:41:12.177Z,982.16
2023-01-17T10:42:12.165Z,982.11
2023-01-17T10:43:12.131Z,982.16
2023-01-17T10:44:12.153Z,982.15
2023-01-17T10:45:12.112Z,982.16
2023-01-17T10:46:12.371Z,982.09
2023-01-17T10:47:12.092Z,982.09
2023-01-17T10:48:12.095Z,982.12
2023-01-17T10:49:12.072Z,982.17
2023-01-17T10:50:12.102Z,982.15
2023-01-17T10:51:12.066Z,982.10
2023-01-17T10:52:12.168Z,982.07
2023-01-17T10:53:12.040Z,982.11
2023-01-17T10:54:12.094Z,982.10
2023-01-17T10:55:12.006Z,982.12
2023-01-17T10:56:12.009Z,982.08
2023-01-17T10:57:11.975Z,982.08
2023-01-17T10:58:12.067Z,982.03
2023-01-17T10:59:11.969Z,982.03
2023-01-17T11:00:11.975Z,982.02
2023-01-17T11:01:12.000Z,982.02
2023-01-17T11:02:12.081Z,982.00
2023-01-17T11:03:11.937Z,981.93
2023-01-17T11:04:11.938Z,981.97
2023-01-17T11:05:11.892Z,981.98
2023-01-17T11:06:11.895Z,981.98
2023-01-17T11:07:11.911Z,981.92
2023-01-17T11:08:11.879Z,981.91
2023-01-17T11:09:11.875Z,981.90
2023-01-17T11:10:11.906Z,981.85
2023-01-17T11:11:11.851Z,981.85
2023-01-17T11:12:11.856Z,981.83
2023-01-17T11:13:11.866Z,981.84
2023-01-17T11:14:11.817Z,981.84
2023-01-17T11:15:11.787Z,981.81
2023-01-17T11:16:11.867Z,981.79
2023-01-17T11:17:11.763Z,981.78
2023-01-17T11:18:11.875Z,981.75
2023-01-17T11:19:11.745Z,981.67
2023-01-17T11:20:11.736Z,981.66
2023-01-17T11:21:11.714Z,981.63
2023-01-17T11:22:11.707Z,981.63
2023-01-17T11:23:11.685Z,981.58
2023-01-17T11:24:11.679Z,981.55
2023-01-17T11:25:11.676Z,981.53
2023-01-17T11:26:11.691Z,981.56
2023-01-17T11:27:11.657Z,981.52
2023-01-17T11:28:11.637Z,981.54
2023-01-17T11:29:11.631Z,981.50
2023-01-17T11:30:11.684Z,981.50
2023-01-17T11:31:11.655Z,981.50
2023-01-17T11:32:11.633Z,981.50
2023-01-17T11:33:11.587Z,981.51
2023-01-17T11:34:11.607Z,981.52
2023-01-17T11:35:11.596Z,981.57
2023-01-17T11:36:11.657Z,981.55
2023-01-17T11:37:11.572Z,981.56
2023-01-17T11:38:11.554Z,981.58
2023-01-17T11:39:11.513Z,981.53
2023-01-17T11:40:11.506Z,981.54
2023-01-17T11:41:11.519Z,981.48
2023-01-17T11:42:11.494Z,981.46
2023-01-17T11:43:11.495Z,981.47
2023-01-17T11:44:11.476Z,981.50
2023-01-17T11:45:11.446Z,981.51
2023-01-17T11:46:11.553Z,981.50
2023-01-17T11:47:11.456Z,981.48
2023-01-17T11:48:11.437Z,981.52
2023-01-17T11:49:11.409Z,981.43
2023-01-17T11:50:11.415Z,981.39
2023-01-17T11:51:11.389Z,981.41
2023-01-17T11:52:11.407Z,981.39
2023-01-17T11:53:11.370Z,981.40
2023-01-17T11:54:11.408Z,981.29
2023-01-17T11:55:11.372Z,981.30
2023-01-17T11:56:11.477Z,981.35
2023-01-17T11:57:11.321Z,981.33
2023-01-17T11:58:11.324Z,981.35
2023-01-17T11:59:11.309Z,981.38
2023-01-17T12:00:11.419Z,981.33
2023-01-17T12:01:11.332Z,981.33
2023-01-17T12:02:11.266Z,981.33
2023-01-17T12:03:11.269Z,981.34
2023-01-17T12:04:11.252Z,981.34
2023-01-17T12:05:11.288Z,981.32
2023-01-17T12:06:11.456Z,981.24
2023-01-17T12:07:11.219Z,981.19
2023-01-17T12:08:11.466Z,981.20
2023-01-17T12:09:11.195Z,981.14
2023-01-17T12:10:11.388Z,981.15
2023-01-17T12:11:11.178Z,981.14
2023-01-17T12:12:11.199Z,981.13
2023-01-17T12:13:11.165Z,981.05
2023-01-17T12:14:11.199Z,981.07
2023-01-17T12:15:11.128Z,981.08
2023-01-17T12:16:11.169Z,981.04
2023-01-17T12:17:11.161Z,981.01
2023-01-17T12:18:11.082Z,980.97
2023-01-17T12:19:11.082Z,981.01
2023-01-17T12:20:11.107Z,980.96
2023-01-17T12:21:11.069Z,980.97
2023-01-17T12:22:11.110Z,980.93
2023-01-17T12:23:11.032Z,980.92
2023-01-17T12:24:11.294Z,980.90
2023-01-17T12:25:11.013Z,980.86
2023-01-17T12:26:11.016Z,980.83
2023-01-17T12:27:11.008Z,980.82
2023-01-17T12:28:10.976Z,980.83